createdAt,value
2023-03-29T00:02:31.266Z,-2.40
2023-03-29T00:05:09.858Z,-2.40
2023-03-29T00:07:46.436Z,-2.50
2023-03-29T00:10:24.214Z,-2.50
2023-03-29T00:13:00.817Z,-2.50
2023-03-29T00:15:37.145Z,-2.52
2023-03-29T00:18:13.463Z,-2.58
2023-03-29T00:20:55.152Z,-2.60
2023-03-29T00:23:31.493Z,-2.60
2023-03-29T00:26:08.796Z,-2.60
2023-03-29T00:28:45.807Z,-2.70
2023-03-29T00:31:22.960Z,-2.70
2023-03-29T00:33:59.646Z,-2.70
2023-03-29T00:36:40.434Z,-2.72
2023-03-29T00:39:16.862Z,-2.80
2023-03-29T00:41:54.277Z,-2.80
2023-03-29T00:45:06.149Z,-2.84
2023-03-29T00:47:49.305Z,-2.90
2023-03-29T00:50:32.154Z,-2.90
2023-03-29T00:53:14.873Z,-2.98
2023-03-29T00:55:57.275Z,-3.00
2023-03-29T00:58:43.588Z,-3.08
2023-03-29T01:01:28.796Z,-3.10
2023-03-29T01:04:18.172Z,-3.10
2023-03-29T01:07:04.162Z,-3.20
2023-03-29T01:09:45.979Z,-3.20
2023-03-29T01:12:25.520Z,-3.26
2023-03-29T01:15:07.926Z,-3.30
2023-03-29T01:17:50.324Z,-3.30
2023-03-29T01:20:46.334Z,-3.40
2023-03-29T01:23:52.751Z,-3.40
2023-03-29T01:26:43.809Z,-3.40
2023-03-29T01:29:29.543Z,-3.50
2023-03-29T01:32:13.058Z,-3.50
2023-03-29T01:34:57.933Z,-3.50
2023-03-29T01:37:42.733Z,-3.60
2023-03-29T01:40:20.015Z,-3.60
2023-03-29T01:43:07.253Z,-3.60
2023-03-29T01:45:52.871Z,-3.64
2023-03-29T01:48:37.660Z,-3.70
2023-03-29T01:51:24.970Z,-3.74
2023-03-29T01:54:08.916Z,-3.80
2023-03-29T01:56:50.799Z,-3.80
2023-03-29T01:59:33.441Z,-3.82
2023-03-29T02:02:16.079Z,-3.88
2023-03-29T02:04:57.769Z,-3.90
2023-03-29T02:07:38.200Z,-3.90
2023-03-29T02:10:18.758Z,-3.90
2023-03-29T02:12:55.211Z,-3.98
2023-03-29T02:15:31.978Z,-4.00
2023-03-29T02:18:09.458Z,-4.00
2023-03-29T02:20:50.804Z,-4.00
2023-03-29T02:23:36.276Z,-4.00
2023-03-29T02:26:14.500Z,-4.06
2023-03-29T02:28:51.732Z,-4.10
2023-03-29T02:31:34.909Z,-4.10
2023-03-29T02:34:22.454Z,-4.10
2023-03-29T02:37:04.204Z,-4.10
2023-03-29T02:39:43.561Z,-4.10
2023-03-29T02:42:22.980Z,-4.10
2023-03-29T02:45:03.937Z,-4.12
2023-03-29T02:47:46.727Z,-4.14
2023-03-29T02:50:24.979Z,-4.20
2023-03-29T02:53:11.637Z,-4.20
2023-03-29T02:55:48.678Z,-4.20
2023-03-29T02:58:26.928Z,-4.20
2023-03-29T03:01:07.745Z,-4.22
2023-03-29T03:03:45.387Z,-4.30
2023-03-29T03:06:22.352Z,-4.30
2023-03-29T03:09:00.151Z,-4.36
2023-03-29T03:11:40.508Z,-4.40
2023-03-29T03:14:19.291Z,-4.46
2023-03-29T03:16:55.800Z,-4.50
2023-03-29T03:19:32.216Z,-4.50
2023-03-29T03:22:10.070Z,-4.60
2023-03-29T03:24:46.970Z,-4.60
2023-03-29T03:27:23.294Z,-4.70
2023-03-29T03:29:59.671Z,-4.70
2023-03-29T03:33:29.281Z,-4.70
2023-03-29T03:36:26.146Z,-4.70
2023-03-29T03:39:03.191Z,-4.80
2023-03-29T03:41:39.596Z,-4.80
2023-03-29T03:44:15.839Z,-4.80
2023-03-29T03:46:52.824Z,-4.90
2023-03-29T03:49:29.433Z,-4.90
2023-03-29T03:52:06.792Z,-4.90
2023-03-29T03:54:44.160Z,-4.94
2023-03-29T03:57:41.414Z,-5.00
2023-03-29T04:00:23.471Z,-5.00
2023-03-29T04:03:07.197Z,-5.00
2023-03-29T04:05:47.468Z,-5.06
2023-03-29T04:08:24.574Z,-5.10
2023-03-29T04:11:23.762Z,-5.10
2023-03-29T04:14:00.253Z,-5.20
2023-03-29T04:17:27.350Z,-5.20
2023-03-29T04:20:12.019Z,-5.20
2023-03-29T04:22:49.902Z,-5.20
2023-03-29T04:25:26.410Z,-5.20
2023-03-29T04:28:09.936Z,-5.20
2023-03-29T04:30:55.068Z,-5.20
2023-03-29T04:33:51.703Z,-5.14
2023-03-29T04:36:28.628Z,-5.10
2023-03-29T04:39:07.917Z,-5.10
2023-03-29T04:41:46.195Z,-5.00
2023-03-29T04:44:44.203Z,-5.00
2023-03-29T04:47:22.510Z,-4.86
2023-03-29T04:50:06.559Z,-4.70
2023-03-29T04:52:51.526Z,-4.50
2023-03-29T04:55:28.080Z,-4.20
2023-03-29T04:58:10.250Z,-3.80
2023-03-29T05:00:49.685Z,-3.40
2023-03-29T05:03:40.447Z,-2.88
2023-03-29T05:06:25.538Z,-2.46
2023-03-29T05:09:02.537Z,-2.00
2023-03-29T05:11:43.420Z,-1.50
2023-03-29T05:14:21.062Z,-0.94
2023-03-29T05:16:57.455Z,-0.40
2023-03-29T05:19:34.144Z,0.16
2023-03-29T05:22:10.433Z,0.66
2023-03-29T05:24:47.040Z,1.28
2023-03-29T05:27:27.938Z,1.80
2023-03-29T05:30:13.839Z,2.26
2023-03-29T05:32:59.409Z,2.70
2023-03-29T05:35:36.713Z,3.16
2023-03-29T05:38:14.722Z,3.70
2023-03-29T05:40:51.440Z,4.20
2023-03-29T05:43:46.798Z,4.70
2023-03-29T05:46:23.324Z,5.10
2023-03-29T05:49:02.495Z,5.42
2023-03-29T05:52:34.341Z,5.98
2023-03-29T05:55:13.201Z,6.20
2023-03-29T05:57:49.759Z,6.50
2023-03-29T06:00:30.153Z,6.60
2023-03-29T06:03:21.730Z,6.80
2023-03-29T06:06:05.130Z,7.00
2023-03-29T06:08:43.049Z,7.10
2023-03-29T06:11:28.126Z,7.30
2023-03-29T06:14:50.278Z,7.40
2023-03-29T06:17:38.208Z,7.48
2023-03-29T06:20:17.201Z,7.60
2023-03-29T06:22:57.136Z,7.70
2023-03-29T06:25:34.251Z,7.80
2023-03-29T06:28:12.033Z,7.82
2023-03-29T06:30:50.119Z,7.80
2023-03-29T06:33:26.982Z,7.90
2023-03-29T06:36:23.958Z,8.30
2023-03-29T06:39:01.079Z,8.60
2023-03-29T06:41:56.271Z,8.70
2023-03-29T06:57:02.006Z,8.80
2023-03-29T07:01:39.356Z,8.90
2023-03-29T07:16:39.967Z,9.70
2023-03-29T07:21:13.421Z,9.80
2023-03-29T07:29:28.829Z,9.80
2023-03-29T07:34:04.154Z,9.74
2023-03-29T07:38:38.265Z,9.80
2023-03-29T07:43:16.134Z,10.06
2023-03-29T07:52:59.131Z,9.90
2023-03-29T07:57:35.028Z,10.00
2023-03-29T08:02:13.450Z,9.80
2023-03-29T08:11:49.562Z,9.40
2023-03-29T08:27:51.352Z,9.78
2023-03-29T08:42:56.498Z,9.50
2023-03-29T08:46:14.962Z,9.80
2023-03-29T08:48:58.437Z,9.80
2023-03-29T08:51:41.583Z,9.80
2023-03-29T09:05:01.930Z,9.30
2023-03-29T09:09:38.368Z,8.96
2023-03-29T09:14:21.072Z,9.00
2023-03-29T09:23:56.127Z,8.62
2023-03-29T09:28:41.297Z,8.40
2023-03-29T09:42:23.518Z,7.60
2023-03-29T09:45:08.663Z,7.60
2023-03-29T09:48:00.320Z,7.60
2023-03-29T09:50:50.437Z,7.50
2023-03-29T09:53:37.035Z,7.38
2023-03-29T09:56:59.872Z,7.40
2023-03-29T09:59:37.161Z,7.50
2023-03-29T10:02:27.712Z,7.40
2023-03-29T10:05:10.297Z,7.40
2023-03-29T10:07:54.573Z,7.48
2023-03-29T10:10:36.910Z,7.50
2023-03-29T10:13:23.089Z,7.60
2023-03-29T10:16:09.612Z,7.60
2023-03-29T10:18:51.333Z,7.60
2023-03-29T10:21:32.735Z,7.70
2023-03-29T10:24:11.990Z,7.70
2023-03-29T10:26:49.473Z,7.70
2023-03-29T10:29:27.921Z,7.60
2023-03-29T10:32:14.621Z,7.70
2023-03-29T10:34:52.601Z,7.60
2023-03-29T10:37:31.602Z,7.50
2023-03-29T10:40:17.420Z,7.60
2023-03-29T10:42:59.198Z,7.70
2023-03-29T10:45:41.159Z,7.70
2023-03-29T10:48:20.461Z,7.70
2023-03-29T10:51:02.319Z,7.66
2023-03-29T10:53:40.225Z,7.68
2023-03-29T10:56:35.684Z,7.60
2023-03-29T10:59:33.820Z,7.60
2023-03-29T11:03:32.744Z,7.70
2023-03-29T11:06:21.001Z,7.68
2023-03-29T11:09:08.233Z,7.70
2023-03-29T11:12:15.996Z,7.70
2023-03-29T11:15:11.350Z,7.80
2023-03-29T11:18:11.150Z,7.90
2023-03-29T11:20:55.995Z,7.90
2023-03-29T11:23:51.322Z,7.88
2023-03-29T11:26:36.026Z,7.90
2023-03-29T11:29:23.042Z,7.98
2023-03-29T11:32:14.207Z,8.00
2023-03-29T11:35:12.344Z,8.00
2023-03-29T11:38:03.219Z,8.00
2023-03-29T11:40:56.693Z,7.90
2023-03-29T11:43:39.891Z,7.90
2023-03-29T11:46:24.712Z,8.00
2023-03-29T11:49:11.296Z,7.90
2023-03-29T11:51:55.793Z,7.98
2023-03-29T11:54:41.124Z,8.00
2023-03-29T11:57:27.694Z,8.10
2023-03-29T12:00:12.486Z,8.10
2023-03-29T12:02:56.917Z,8.10
2023-03-29T12:05:42.551Z,8.10
2023-03-29T12:08:25.718Z,8.10
2023-03-29T12:11:16.203Z,8.10
2023-03-29T12:13:59.350Z,8.10
2023-03-29T12:16:45.500Z,8.10
2023-03-29T12:19:28.137Z,8.14
2023-03-29T12:22:08.034Z,8.10
2023-03-29T12:24:50.212Z,8.10
2023-03-29T12:27:35.945Z,8.20
2023-03-29T12:30:57.006Z,8.20
2023-03-29T12:34:31.108Z,8.20
2023-03-29T12:37:33.021Z,8.30
2023-03-29T12:40:37.217Z,8.30
2023-03-29T12:44:13.521Z,8.30
2023-03-29T12:47:43.888Z,8.30
2023-03-29T12:50:34.400Z,8.30
2023-03-29T12:53:24.112Z,8.40
2023-03-29T12:56:18.314Z,8.40
2023-03-29T12:59:27.752Z,8.40
2023-03-29T13:02:28.368Z,8.40
2023-03-29T13:05:07.749Z,8.30
2023-03-29T13:07:53.548Z,8.28
2023-03-29T13:10:53.142Z,8.20
2023-03-29T13:13:36.314Z,8.30
2023-03-29T13:16:20.570Z,8.30
2023-03-29T13:19:27.021Z,8.20
2023-03-29T13:22:22.182Z,8.26
2023-03-29T13:25:33.963Z,8.24
2023-03-29T13:28:24.030Z,8.22
2023-03-29T13:31:14.224Z,8.30
2023-03-29T13:34:08.353Z,8.30
2023-03-29T13:37:06.835Z,8.30
2023-03-29T13:39:54.013Z,8.30
2023-03-29T13:42:45.535Z,8.40
2023-03-29T13:45:35.423Z,8.30
2023-03-29T13:48:29.528Z,8.30
2023-03-29T13:51:25.310Z,8.30
2023-03-29T13:54:14.358Z,8.30
2023-03-29T13:57:06.813Z,8.30
2023-03-29T13:59:58.438Z,8.20
2023-03-29T14:02:47.342Z,8.20
2023-03-29T14:05:33.134Z,8.20
2023-03-29T14:08:22.869Z,8.20
2023-03-29T14:11:04.516Z,8.26
2023-03-29T14:13:41.697Z,8.30
2023-03-29T14:16:18.486Z,8.30
2023-03-29T14:18:55.499Z,8.30
2023-03-29T14:21:32.314Z,8.30
2023-03-29T14:24:14.033Z,8.30
2023-03-29T14:26:53.706Z,8.30
2023-03-29T14:29:35.952Z,8.30
2023-03-29T14:32:21.801Z,8.30
2023-03-29T14:34:58.834Z,8.30
2023-03-29T14:37:35.681Z,8.30
2023-03-29T14:40:22.020Z,8.22
2023-03-29T14:42:59.353Z,8.30
2023-03-29T14:45:36.078Z,8.30
2023-03-29T14:48:15.871Z,8.30
2023-03-29T14:50:53.372Z,8.20
2023-03-29T14:53:32.388Z,8.20
2023-03-29T14:56:13.944Z,8.10
2023-03-29T14:58:55.374Z,8.10
2023-03-29T15:01:33.458Z,8.10
2023-03-29T15:04:12.971Z,8.10
2023-03-29T15:06:52.522Z,8.00
2023-03-29T15:09:38.545Z,7.90
2023-03-29T15:12:20.846Z,7.80
2023-03-29T15:14:58.024Z,7.70
2023-03-29T15:17:51.055Z,7.70
2023-03-29T15:20:35.332Z,7.60
2023-03-29T15:23:26.651Z,7.60
2023-03-29T15:26:16.742Z,7.50
2023-03-29T15:29:03.182Z,7.50
2023-03-29T15:31:42.832Z,7.46
2023-03-29T15:34:30.949Z,7.40
2023-03-29T15:37:08.202Z,7.40
2023-03-29T15:39:46.809Z,7.40
2023-03-29T15:42:23.596Z,7.40
2023-03-29T15:45:05.164Z,7.40
2023-03-29T15:47:41.550Z,7.40
2023-03-29T15:50:18.687Z,7.38
2023-03-29T15:53:08.530Z,7.30
2023-03-29T15:55:53.054Z,7.30
2023-03-29T15:58:34.737Z,7.30
2023-03-29T16:01:34.622Z,7.30
2023-03-29T16:04:16.497Z,7.24
2023-03-29T16:06:55.904Z,7.20
2023-03-29T16:09:32.494Z,7.20
2023-03-29T16:12:09.347Z,7.20
2023-03-29T16:14:45.857Z,7.20
2023-03-29T16:17:22.343Z,7.20
2023-03-29T16:19:58.889Z,7.20
2023-03-29T16:22:38.514Z,7.20
2023-03-29T16:25:22.870Z,7.20
2023-03-29T16:27:59.445Z,7.20
2023-03-29T16:30:38.440Z,7.20
2023-03-29T16:33:16.066Z,7.20
2023-03-29T16:35:52.633Z,7.20
2023-03-29T16:38:29.565Z,7.10
2023-03-29T16:41:07.258Z,7.10
2023-03-29T16:43:44.888Z,7.10
2023-03-29T16:46:21.518Z,7.00
2023-03-29T16:49:00.302Z,7.00
2023-03-29T16:51:36.710Z,6.90
2023-03-29T16:54:13.036Z,6.90
2023-03-29T16:56:49.882Z,6.80
2023-03-29T16:59:27.242Z,6.78
2023-03-29T17:02:03.769Z,6.70
2023-03-29T17:04:40.492Z,6.62
2023-03-29T17:07:17.521Z,6.60
2023-03-29T17:09:54.793Z,6.50
2023-03-29T17:12:31.561Z,6.50
2023-03-29T17:15:10.563Z,6.40
2023-03-29T17:17:47.484Z,6.38
2023-03-29T17:20:24.879Z,6.30
2023-03-29T17:23:01.288Z,6.20
2023-03-29T17:25:37.934Z,6.14
2023-03-29T17:28:14.793Z,6.08
2023-03-29T17:30:52.006Z,6.00
2023-03-29T17:33:28.769Z,5.88
2023-03-29T17:36:06.407Z,5.78
2023-03-29T17:38:44.045Z,5.70
2023-03-29T17:41:21.565Z,5.60
2023-03-29T17:43:58.358Z,5.46
2023-03-29T17:46:34.874Z,5.30
2023-03-29T17:49:11.866Z,5.20
2023-03-29T17:51:48.750Z,5.10
2023-03-29T17:54:26.164Z,5.00
2023-03-29T17:57:02.892Z,4.90
2023-03-29T17:59:40.029Z,4.80
2023-03-29T18:02:22.865Z,4.70
2023-03-29T18:05:01.793Z,4.60
2023-03-29T18:07:40.158Z,4.50
2023-03-29T18:10:17.970Z,4.40
2023-03-29T18:12:54.686Z,4.30
2023-03-29T18:15:31.474Z,4.20
2023-03-29T18:18:08.824Z,4.20
2023-03-29T18:20:47.240Z,4.10
2023-03-29T18:23:24.480Z,4.02
2023-03-29T18:26:07.777Z,4.00
2023-03-29T18:28:46.705Z,3.90
2023-03-29T18:31:24.055Z,3.90
2023-03-29T18:34:01.202Z,3.90
2023-03-29T18:36:38.317Z,3.80
2023-03-29T18:39:15.062Z,3.80
2023-03-29T18:41:52.153Z,3.80
2023-03-29T18:44:30.763Z,3.80
2023-03-29T18:47:08.376Z,3.80
2023-03-29T18:49:45.550Z,3.80
2023-03-29T18:52:23.417Z,3.80
2023-03-29T18:55:01.052Z,3.70
2023-03-29T18:57:38.790Z,3.70
2023-03-29T19:00:18.307Z,3.64
2023-03-29T19:02:55.757Z,3.60
2023-03-29T19:05:33.362Z,3.60
2023-03-29T19:08:10.966Z,3.50
2023-03-29T19:10:48.697Z,3.50
2023-03-29T19:13:26.482Z,3.50
2023-03-29T19:16:04.487Z,3.40
2023-03-29T19:18:42.210Z,3.40
2023-03-29T19:21:19.336Z,3.40
2023-03-29T19:23:56.798Z,3.40
2023-03-29T19:26:34.549Z,3.40
2023-03-29T19:29:11.796Z,3.30
2023-03-29T19:31:48.868Z,3.30
2023-03-29T19:34:26.760Z,3.30
2023-03-29T19:37:04.088Z,3.30
2023-03-29T19:39:41.519Z,3.20
2023-03-29T19:42:18.890Z,3.20
2023-03-29T19:44:55.833Z,3.20
2023-03-29T19:47:33.070Z,3.10
2023-03-29T19:50:13.965Z,3.10
2023-03-29T19:52:51.357Z,3.10
2023-03-29T19:55:28.477Z,3.10
2023-03-29T19:58:05.375Z,3.10
2023-03-29T20:00:43.232Z,3.10
2023-03-29T20:03:24.899Z,3.10
2023-03-29T20:06:02.878Z,3.00
2023-03-29T20:08:41.435Z,3.00
2023-03-29T20:11:24.180Z,3.00
2023-03-29T20:14:03.122Z,2.90
2023-03-29T20:16:41.752Z,2.90
2023-03-29T20:19:18.837Z,2.80
2023-03-29T20:21:57.818Z,2.80
2023-03-29T20:24:35.177Z,2.70
2023-03-29T20:27:12.457Z,2.60
2023-03-29T20:29:50.488Z,2.60
2023-03-29T20:32:27.313Z,2.52
2023-03-29T20:35:04.209Z,2.50
2023-03-29T20:37:41.189Z,2.40
2023-03-29T20:40:20.941Z,2.40
2023-03-29T20:42:57.801Z,2.28
2023-03-29T20:45:51.652Z,2.20
2023-03-29T20:48:31.488Z,2.10
2023-03-29T20:51:10.237Z,2.08
2023-03-29T20:53:46.731Z,1.98
2023-03-29T20:56:26.346Z,1.86
2023-03-29T20:59:04.039Z,1.80
2023-03-29T21:01:41.287Z,1.70
2023-03-29T21:04:17.839Z,1.70
2023-03-29T21:06:56.290Z,1.60
2023-03-29T21:09:35.540Z,1.58
2023-03-29T21:12:13.517Z,1.50
2023-03-29T21:14:50.842Z,1.50
2023-03-29T21:17:28.145Z,1.40
2023-03-29T21:20:08.504Z,1.42
2023-03-29T21:22:46.695Z,1.50
2023-03-29T21:25:24.282Z,1.48
2023-03-29T21:28:01.789Z,1.46
2023-03-29T21:30:39.524Z,1.50
2023-03-29T21:33:16.980Z,1.50
2023-03-29T21:35:55.675Z,1.50
2023-03-29T21:38:33.239Z,1.50
2023-03-29T21:41:14.295Z,1.50
2023-03-29T21:43:51.865Z,1.40
2023-03-29T21:46:29.253Z,1.40
2023-03-29T21:49:06.712Z,1.40
2023-03-29T21:51:43.985Z,1.40
2023-03-29T21:54:21.390Z,1.32
2023-03-29T21:56:58.710Z,1.30
2023-03-29T21:59:36.356Z,1.22
2023-03-29T22:02:13.853Z,1.20
2023-03-29T22:04:51.911Z,1.10
2023-03-29T22:07:29.256Z,1.10
2023-03-29T22:10:08.238Z,1.00
2023-03-29T22:12:45.998Z,1.00
2023-03-29T22:15:24.453Z,0.96
2023-03-29T22:18:02.183Z,0.90
2023-03-29T22:20:40.321Z,0.80
2023-03-29T22:23:18.487Z,0.80
2023-03-29T22:25:55.877Z,0.72
2023-03-29T22:28:33.083Z,0.70
2023-03-29T22:31:13.372Z,0.64
2023-03-29T22:33:51.328Z,0.60
2023-03-29T22:36:31.928Z,0.60
2023-03-29T22:39:10.930Z,0.50
2023-03-29T22:41:48.197Z,0.50
2023-03-29T22:44:25.671Z,0.42
2023-03-29T22:47:03.181Z,0.40
2023-03-29T22:49:40.621Z,0.34
2023-03-29T22:52:17.901Z,0.30
2023-03-29T22:54:55.157Z,0.30
2023-03-29T22:57:32.885Z,0.30
2023-03-29T23:00:13.725Z,0.22
2023-03-29T23:02:51.625Z,0.20
2023-03-29T23:05:29.004Z,0.20
2023-03-29T23:08:07.051Z,0.20
2023-03-29T23:10:44.466Z,0.20
2023-03-29T23:13:26.040Z,0.20
2023-03-29T23:16:06.147Z,0.16
2023-03-29T23:18:43.350Z,0.10
2023-03-29T23:21:21.131Z,0.10
2023-03-29T23:23:58.445Z,0.10
2023-03-29T23:26:35.763Z,0.10
2023-03-29T23:29:13.739Z,0.20
2023-03-29T23:31:51.069Z,0.20
2023-03-29T23:34:28.781Z,0.30
2023-03-29T23:37:06.168Z,0.30
2023-03-29T23:39:43.445Z,0.40
2023-03-29T23:42:21.129Z,0.50
2023-03-29T23:44:58.460Z,0.56
2023-03-29T23:47:36.936Z,0.60
2023-03-29T23:50:16.965Z,0.70
2023-03-29T23:52:54.987Z,0.80
2023-03-29T23:55:32.342Z,0.94
2023-03-29T23:58:09.915Z,1.10
